createdAt,value
2022-12-25T00:02:30.875Z,100589.71
2022-12-25T00:07:34.378Z,100591.96
2022-12-25T00:12:38.887Z,100594.11
2022-12-25T00:17:43.945Z,100593.44
2022-12-25T00:22:47.774Z,100599.23
2022-12-25T00:27:51.091Z,100604.34
2022-12-25T00:32:54.371Z,100605.30
2022-12-25T00:37:57.603Z,100605.37
2022-12-25T00:43:00.904Z,100608.86
2022-12-25T00:48:05.067Z,100618.03
2022-12-25T00:53:08.372Z,100628.76
2022-12-25T00:58:11.628Z,100630.48
2022-12-25T01:03:15.461Z,100645.87
2022-12-25T01:08:18.752Z,100655.52
2022-12-25T01:13:22.069Z,100660.80
2022-12-25T01:18:26.776Z,100669.00
2022-12-25T01:23:30.078Z,100673.42
2022-12-25T01:28:33.418Z,100664.45
2022-12-25T01:33:36.734Z,100667.66
2022-12-25T01:38:40.006Z,100677.52
2022-12-25T01:44:19.019Z,100680.34
2022-12-25T01:49:26.186Z,100671.65
2022-12-25T01:54:56.192Z,100663.34
2022-12-25T02:00:01.303Z,100659.58
2022-12-25T02:05:12.521Z,100654.38
2022-12-25T02:10:15.903Z,100657.58
2022-12-25T02:15:22.623Z,100667.61
2022-12-25T02:20:28.966Z,100673.87
2022-12-25T02:26:06.242Z,100680.17
2022-12-25T02:31:20.409Z,100689.64
2022-12-25T02:36:29.177Z,100692.20
2022-12-25T02:41:38.982Z,100689.39
2022-12-25T02:47:03.358Z,100686.48
2022-12-25T02:52:33.316Z,100689.02
2022-12-25T02:58:05.922Z,100687.55
2022-12-25T03:03:30.004Z,100688.67
2022-12-25T03:08:41.751Z,100694.79
2022-12-25T03:13:49.974Z,100698.36
2022-12-25T03:18:56.157Z,100702.11
2022-12-25T03:24:20.853Z,100699.27
2022-12-25T03:29:52.391Z,100698.01
2022-12-25T03:35:23.405Z,100697.35
2022-12-25T03:40:52.766Z,100699.23
2022-12-25T03:46:24.023Z,100694.92
2022-12-25T03:51:51.298Z,100697.66
2022-12-25T03:57:14.695Z,100697.15
2022-12-25T04:02:37.211Z,100706.35
2022-12-25T04:07:59.348Z,100711.08
2022-12-25T04:13:21.402Z,100709.24
2022-12-25T04:18:43.439Z,100709.77
2022-12-25T04:24:05.509Z,100702.28
2022-12-25T04:29:27.718Z,100712.76
2022-12-25T04:34:49.883Z,100721.89
2022-12-25T04:39:53.154Z,100723.41
2022-12-25T04:44:56.477Z,100714.59
2022-12-25T04:49:59.717Z,100706.43
2022-12-25T04:55:04.293Z,100709.70
2022-12-25T05:00:08.763Z,100710.11
2022-12-25T05:05:12.180Z,100710.80
2022-12-25T05:10:15.491Z,100721.23
2022-12-25T05:15:18.785Z,100722.00
2022-12-25T05:20:22.008Z,100724.70
2022-12-25T05:25:25.326Z,100727.22
2022-12-25T05:30:28.557Z,100730.90
2022-12-25T05:35:32.530Z,100744.52
2022-12-25T05:40:40.315Z,100749.43
2022-12-25T05:45:43.670Z,100751.74
2022-12-25T05:50:46.989Z,100752.20
2022-12-25T05:55:50.322Z,100752.42
2022-12-25T06:00:53.656Z,100757.86
2022-12-25T06:05:58.031Z,100757.77
2022-12-25T06:11:06.117Z,100763.17
2022-12-25T06:16:12.566Z,100770.70
2022-12-25T06:21:16.683Z,100777.73
2022-12-25T06:26:20.711Z,100782.74
2022-12-25T06:31:25.127Z,100794.13
2022-12-25T06:36:29.779Z,100802.27
2022-12-25T06:41:33.176Z,100809.10
2022-12-25T06:46:36.606Z,100818.36
2022-12-25T06:51:39.939Z,100825.48
2022-12-25T06:56:43.222Z,100838.31
2022-12-25T07:01:49.023Z,100864.03
2022-12-25T07:06:53.106Z,100867.36
2022-12-25T07:12:04.608Z,100866.30
2022-12-25T07:17:08.363Z,100866.16
2022-12-25T07:22:11.668Z,100877.63
2022-12-25T07:27:14.994Z,100888.62
2022-12-25T07:32:18.741Z,100891.27
2022-12-25T07:37:22.451Z,100903.04
2022-12-25T07:42:25.816Z,100906.34
2022-12-25T07:47:29.668Z,100912.14
2022-12-25T07:52:43.058Z,100914.48
2022-12-25T07:57:46.850Z,100920.97
2022-12-25T08:02:51.473Z,100924.13
2022-12-25T08:07:57.962Z,100922.56
2022-12-25T08:13:01.703Z,100928.77
2022-12-25T08:18:05.319Z,100938.00
2022-12-25T08:23:08.855Z,100946.33
2022-12-25T08:28:12.408Z,100954.30
2022-12-25T08:33:15.683Z,100954.43
2022-12-25T08:38:19.004Z,100953.98
2022-12-25T08:43:22.953Z,100951.69
2022-12-25T08:48:26.451Z,100959.18
2022-12-25T08:53:30.510Z,100967.16
2022-12-25T08:58:33.967Z,100969.20
2022-12-25T09:03:37.594Z,100964.16
2022-12-25T09:08:48.117Z,100959.09
2022-12-25T09:13:53.223Z,100960.84
2022-12-25T09:19:00.532Z,100965.02
2022-12-25T09:24:05.640Z,100969.05
2022-12-25T09:29:09.394Z,100972.30
2022-12-25T09:34:18.810Z,100973.89
2022-12-25T09:39:23.797Z,100963.77
2022-12-25T09:44:33.539Z,100967.17
2022-12-25T09:49:59.289Z,100970.86
2022-12-25T09:55:06.673Z,100976.25
2022-12-25T10:00:22.397Z,100970.04
2022-12-25T10:05:36.200Z,100973.59
2022-12-25T10:10:51.785Z,100981.05
2022-12-25T10:16:29.488Z,100981.67
2022-12-25T10:21:33.654Z,100976.03
2022-12-25T10:26:37.393Z,100981.98
2022-12-25T10:31:42.319Z,100986.96
2022-12-25T10:36:46.821Z,100992.95
2022-12-25T10:42:27.285Z,100978.33
2022-12-25T10:47:34.805Z,100971.07
2022-12-25T10:52:52.654Z,100966.60
2022-12-25T10:57:58.382Z,100960.80
2022-12-25T11:03:02.526Z,100962.27
2022-12-25T11:08:22.194Z,100964.03
2022-12-25T11:13:28.458Z,100965.28
2022-12-25T11:18:53.142Z,100962.67
2022-12-25T11:24:02.957Z,100966.83
2022-12-25T11:29:22.571Z,100976.71
2022-12-25T11:34:34.203Z,100978.65
2022-12-25T11:39:42.300Z,100982.35
2022-12-25T11:44:56.569Z,100987.30
2022-12-25T11:50:06.902Z,100991.25
2022-12-25T11:55:37.639Z,100991.11
2022-12-25T12:00:43.712Z,100998.92
2022-12-25T12:06:02.517Z,101003.48
2022-12-25T12:11:22.233Z,101000.63
2022-12-25T12:16:29.994Z,100998.02
2022-12-25T12:21:33.557Z,101000.27
2022-12-25T12:26:41.156Z,100989.29
2022-12-25T12:31:49.119Z,100982.64
2022-12-25T12:36:59.682Z,100972.69
2022-12-25T12:42:12.135Z,100971.02
2022-12-25T12:47:43.247Z,100974.89
2022-12-25T12:52:48.835Z,100976.21
2022-12-25T12:57:59.458Z,100974.61
2022-12-25T13:03:35.064Z,100974.86
2022-12-25T13:09:01.940Z,100981.34
2022-12-25T13:14:05.418Z,100994.27
2022-12-25T13:19:14.758Z,100992.13
2022-12-25T13:24:24.436Z,100992.48
2022-12-25T13:29:33.187Z,100996.69
2022-12-25T13:34:38.835Z,100990.06
2022-12-25T13:39:50.519Z,100986.29
2022-12-25T13:44:56.393Z,100988.73
2022-12-25T13:50:14.178Z,100987.45
2022-12-25T13:55:20.646Z,100992.50
2022-12-25T14:00:31.726Z,100993.11
2022-12-25T14:05:42.670Z,100993.18
2022-12-25T14:10:52.829Z,100985.70
2022-12-25T14:15:58.802Z,100984.84
2022-12-25T14:21:16.063Z,100981.70
2022-12-25T14:26:27.992Z,100980.37
2022-12-25T14:31:33.466Z,100992.19
2022-12-25T14:36:37.907Z,101007.61
2022-12-25T14:41:42.459Z,101019.47
2022-12-25T14:46:45.760Z,101029.38
2022-12-25T14:51:49.699Z,101032.95
2022-12-25T14:56:56.859Z,101037.39
2022-12-25T15:02:03.681Z,101039.29
2022-12-25T15:07:28.301Z,101032.63
2022-12-25T15:12:31.698Z,101032.46
2022-12-25T15:17:37.049Z,101025.92
2022-12-25T15:23:02.853Z,101018.64
2022-12-25T15:28:08.039Z,101021.55
2022-12-25T15:33:18.530Z,101024.30
2022-12-25T15:38:22.730Z,101017.48
2022-12-25T15:43:41.905Z,101007.21
2022-12-25T15:48:45.337Z,100993.45
2022-12-25T15:53:49.209Z,100977.85
2022-12-25T15:58:52.831Z,100976.96
2022-12-25T16:03:58.982Z,100974.40
2022-12-25T16:09:02.374Z,100996.63
2022-12-25T16:14:06.445Z,101010.64
2022-12-25T16:19:09.745Z,101018.27
2022-12-25T16:24:14.461Z,101013.40
2022-12-25T16:29:18.471Z,101013.27
2022-12-25T16:34:21.758Z,101021.96
2022-12-25T16:39:25.492Z,101021.56
2022-12-25T16:44:29.024Z,101015.23
2022-12-25T16:49:32.630Z,101011.66
2022-12-25T16:54:36.632Z,101020.77
2022-12-25T16:59:40.043Z,101009.88
2022-12-25T17:04:45.099Z,101001.98
2022-12-25T17:09:49.982Z,101003.23
2022-12-25T17:14:53.885Z,101008.80
2022-12-25T17:19:57.924Z,101005.29
2022-12-25T17:25:01.453Z,100993.54
2022-12-25T17:30:05.561Z,100995.33
2022-12-25T17:35:09.335Z,100991.60
2022-12-25T17:40:13.241Z,100988.62
2022-12-25T17:45:16.796Z,100989.98
2022-12-25T17:50:20.132Z,100987.23
2022-12-25T17:55:23.433Z,100989.95
2022-12-25T18:00:27.092Z,100988.52
2022-12-25T18:05:30.593Z,100982.55
2022-12-25T18:10:43.969Z,100975.84
2022-12-25T18:15:47.652Z,100976.07
2022-12-25T18:20:53.485Z,100971.40
2022-12-25T18:25:57.339Z,100963.59
2022-12-25T18:31:01.339Z,100956.61
2022-12-25T18:36:05.386Z,100954.62
2022-12-25T18:41:11.087Z,100958.11
2022-12-25T18:46:17.761Z,100959.63
2022-12-25T18:51:21.360Z,100956.91
2022-12-25T18:56:25.204Z,100956.14
2022-12-25T19:01:28.970Z,100951.95
2022-12-25T19:06:35.391Z,100942.95
2022-12-25T19:11:46.186Z,100935.40
2022-12-25T19:16:52.413Z,100926.44
2022-12-25T19:21:57.878Z,100920.11
2022-12-25T19:27:01.287Z,100912.41
2022-12-25T19:32:04.899Z,100906.88
2022-12-25T19:37:08.800Z,100903.33
2022-12-25T19:42:14.026Z,100897.42
2022-12-25T19:47:17.576Z,100888.96
2022-12-25T19:52:21.048Z,100876.98
2022-12-25T19:57:24.316Z,100874.82
2022-12-25T20:02:27.759Z,100875.88
2022-12-25T20:07:31.570Z,100885.08
2022-12-25T20:12:35.153Z,100890.88
2022-12-25T20:17:38.628Z,100893.05
2022-12-25T20:22:42.020Z,100887.89
2022-12-25T20:27:45.728Z,100885.26
2022-12-25T20:32:50.771Z,100886.77
2022-12-25T20:37:54.266Z,100889.15
2022-12-25T20:42:57.570Z,100891.61
2022-12-25T20:48:01.475Z,100889.23
2022-12-25T20:53:05.090Z,100877.70
2022-12-25T20:58:08.377Z,100867.42
2022-12-25T21:03:12.321Z,100861.45
2022-12-25T21:08:21.087Z,100849.08
2022-12-25T21:13:26.743Z,100834.33
2022-12-25T21:18:30.105Z,100835.91
2022-12-25T21:23:35.792Z,100833.39
2022-12-25T21:28:39.229Z,100827.05
2022-12-25T21:33:51.710Z,100812.23
2022-12-25T21:39:01.269Z,100801.09
2022-12-25T21:44:05.518Z,100790.11
2022-12-25T21:49:09.595Z,100794.57
2022-12-25T21:54:14.065Z,100793.82
2022-12-25T21:59:22.415Z,100784.70
2022-12-25T22:04:26.064Z,100776.25
2022-12-25T22:09:29.715Z,100773.22
2022-12-25T22:14:59.359Z,100767.82
2022-12-25T22:20:08.939Z,100746.45
2022-12-25T22:25:15.166Z,100741.02
2022-12-25T22:30:25.410Z,100729.02
2022-12-25T22:35:28.720Z,100710.20
2022-12-25T22:40:38.147Z,100699.10
2022-12-25T22:45:41.577Z,100688.52
2022-12-25T22:50:44.917Z,100682.23
2022-12-25T22:55:49.812Z,100674.73
2022-12-25T23:00:53.252Z,100661.65
2022-12-25T23:05:57.430Z,100659.21
2022-12-25T23:11:05.950Z,100655.95
2022-12-25T23:16:14.797Z,100648.13
2022-12-25T23:21:37.290Z,100631.33
2022-12-25T23:26:40.575Z,100621.16
2022-12-25T23:31:44.274Z,100599.80
2022-12-25T23:36:47.959Z,100618.61
2022-12-25T23:41:51.827Z,100632.84
2022-12-25T23:46:55.420Z,100634.85
2022-12-25T23:51:58.800Z,100626.90
2022-12-25T23:57:02.209Z,100627.19
